Terminal Aerodrome Forecast
Issued by NWS Wilmington, OH

Current Version | Previous Version | Graphics & Text | Print | Product List | Glossary On
Versions: 1 2 3 4 5 6 7 8 9 10 11 12 13 14 15 16 17 18 19 20 21 22 23 24 25 26 27 28 29 30 31
000
FTUS41 KILN 241500 AAA
TAFCVG
TAF AMD
KCVG 241500Z 2415/2518 20010KT P6SM BKN140
     FM241800 18010G17KT P6SM SCT100 BKN200
     FM250000 16009KT P6SM BKN200
     FM251300 19016G25KT P6SM VCSH SCT040 BKN080=

USA.gov is the U.S. government's official web portal to all federal, state and local government web resources and services.